createdAt,value
2019-01-25T00:00:09.294Z,37.38
2019-01-25T00:02:37.719Z,38.42
2019-01-25T00:05:07.502Z,31.27
2019-01-25T00:07:35.951Z,31.48
2019-01-25T00:10:07.447Z,34.10
2019-01-25T00:12:35.883Z,33.60
2019-01-25T00:15:07.138Z,32.13
2019-01-25T00:17:35.552Z,31.40
2019-01-25T00:20:07.264Z,35.50
2019-01-25T00:22:36.058Z,34.55
2019-01-25T00:25:06.127Z,35.17
2019-01-25T00:27:35.003Z,38.30
2019-01-25T00:30:04.986Z,34.85
2019-01-25T00:32:33.411Z,32.63
2019-01-25T00:35:01.866Z,32.70
2019-01-25T00:37:30.368Z,32.20
2019-01-25T00:40:05.974Z,28.90
2019-01-25T00:42:29.104Z,29.55
2019-01-25T00:44:57.551Z,33.67
2019-01-25T00:47:25.966Z,31.93
2019-01-25T00:49:54.503Z,36.40
2019-01-25T00:52:22.987Z,30.50
2019-01-25T00:54:51.396Z,30.48
2019-01-25T00:57:19.851Z,30.15
2019-01-25T00:59:48.334Z,33.10
2019-01-25T01:02:16.766Z,36.13
2019-01-25T01:04:45.180Z,32.40
2019-01-25T01:07:13.931Z,31.12
2019-01-25T01:09:42.354Z,31.17
2019-01-25T01:12:10.770Z,32.93
2019-01-25T01:14:39.202Z,31.07
2019-01-25T01:17:07.661Z,26.93
2019-01-25T01:19:36.108Z,30.40
2019-01-25T01:22:04.887Z,25.92
2019-01-25T01:24:33.347Z,29.80
2019-01-25T01:27:01.812Z,34.08
2019-01-25T01:29:30.237Z,31.77
2019-01-25T01:31:58.683Z,29.77
2019-01-25T01:34:27.107Z,32.55
2019-01-25T01:36:55.549Z,31.45
2019-01-25T01:39:24.015Z,29.70
2019-01-25T01:41:52.439Z,32.13
2019-01-25T01:44:20.859Z,29.57
2019-01-25T01:46:49.358Z,32.95
2019-01-25T01:49:17.848Z,30.85
2019-01-25T01:51:46.271Z,31.97
2019-01-25T01:54:14.705Z,33.15
2019-01-25T01:56:43.138Z,30.70
2019-01-25T01:59:11.603Z,29.12
2019-01-25T02:01:40.012Z,32.33
2019-01-25T02:04:08.464Z,30.60
2019-01-25T02:06:37.078Z,27.17
2019-01-25T02:09:06.991Z,29.72
2019-01-25T02:11:35.419Z,32.33
2019-01-25T02:14:04.095Z,28.07
2019-01-25T02:16:32.549Z,26.52
2019-01-25T02:19:00.992Z,23.55
2019-01-25T02:21:29.415Z,27.70
2019-01-25T02:23:57.858Z,27.20
2019-01-25T02:26:26.316Z,16.37
2019-01-25T02:28:54.755Z,27.37
2019-01-25T02:31:23.179Z,26.70
2019-01-25T02:33:51.686Z,28.40
2019-01-25T02:36:20.127Z,27.42
2019-01-25T02:38:48.552Z,27.73
2019-01-25T02:41:17.003Z,27.00
2019-01-25T02:43:45.418Z,29.63
2019-01-25T02:46:13.868Z,28.40
2019-01-25T02:48:42.342Z,26.12
2019-01-25T02:51:10.770Z,28.52
2019-01-25T02:53:39.183Z,25.95
2019-01-25T02:56:07.637Z,27.55
2019-01-25T02:58:36.065Z,25.52
2019-01-25T03:01:04.647Z,27.40
2019-01-25T03:03:33.101Z,26.02
2019-01-25T03:06:01.515Z,23.40
2019-01-25T03:08:29.962Z,28.67
2019-01-25T03:10:58.395Z,23.52
2019-01-25T03:13:26.818Z,27.75
2019-01-25T03:15:55.278Z,19.02
2019-01-25T03:18:23.734Z,29.25
2019-01-25T03:20:52.163Z,26.30
2019-01-25T03:23:20.778Z,29.50
2019-01-25T03:25:49.207Z,30.27
2019-01-25T03:28:17.709Z,29.80
2019-01-25T03:30:46.159Z,26.97
2019-01-25T03:33:14.617Z,26.65
2019-01-25T03:35:43.027Z,29.37
2019-01-25T03:38:11.466Z,27.65
2019-01-25T03:40:43.127Z,26.20
2019-01-25T03:43:11.568Z,31.57
2019-01-25T03:45:39.984Z,31.70
2019-01-25T03:48:08.958Z,29.00
2019-01-25T03:50:37.410Z,29.23
2019-01-25T03:53:05.886Z,32.13
2019-01-25T03:55:39.011Z,30.80
2019-01-25T03:58:07.424Z,27.42
2019-01-25T04:00:35.847Z,32.90
2019-01-25T04:03:04.333Z,30.65
2019-01-25T04:05:32.811Z,34.53
2019-01-25T04:08:01.258Z,24.65
2019-01-25T04:10:32.462Z,31.15
2019-01-25T04:13:00.886Z,35.40
2019-01-25T04:15:31.857Z,37.13
2019-01-25T04:18:00.274Z,29.30
2019-01-25T04:20:29.634Z,31.90
2019-01-25T04:22:58.334Z,31.52
2019-01-25T04:25:30.094Z,29.15
2019-01-25T04:27:58.909Z,30.90
2019-01-25T04:30:29.607Z,29.07
2019-01-25T04:32:58.087Z,32.35
2019-01-25T04:35:26.585Z,29.12
2019-01-25T04:37:55.068Z,31.42
2019-01-25T04:40:23.490Z,31.55
2019-01-25T04:42:56.434Z,28.35
2019-01-25T04:45:25.159Z,32.73
2019-01-25T04:47:54.018Z,33.40
2019-01-25T04:50:24.423Z,28.60
2019-01-25T04:52:53.419Z,27.05
2019-01-25T04:55:27.273Z,32.20
2019-01-25T04:58:04.632Z,29.77
2019-01-25T05:00:33.084Z,34.05
2019-01-25T05:03:01.559Z,29.40
2019-01-25T05:05:30.638Z,29.18
2019-01-25T05:08:11.106Z,30.10
2019-01-25T05:10:39.590Z,29.35
2019-01-25T05:13:11.191Z,32.53
2019-01-25T05:15:39.659Z,33.58
2019-01-25T05:18:08.424Z,30.43
2019-01-25T05:20:36.890Z,31.10
2019-01-25T05:23:07.556Z,31.20
2019-01-25T05:25:35.969Z,31.17
2019-01-25T05:28:16.779Z,30.50
2019-01-25T05:30:54.024Z,28.12
2019-01-25T05:33:22.483Z,30.27
2019-01-25T05:35:50.923Z,27.37
2019-01-25T05:38:19.367Z,30.95
2019-01-25T05:40:47.859Z,30.60
2019-01-25T05:43:16.297Z,30.37
2019-01-25T05:45:45.979Z,28.45
2019-01-25T05:48:14.947Z,30.97
2019-01-25T05:50:43.422Z,30.97
2019-01-25T05:53:11.828Z,31.33
2019-01-25T05:55:40.285Z,30.65
2019-01-25T05:58:10.035Z,31.42
2019-01-25T06:00:40.156Z,28.98
2019-01-25T06:03:11.742Z,32.53
2019-01-25T06:05:40.510Z,30.30
2019-01-25T06:08:31.217Z,31.42
2019-01-25T06:11:01.794Z,33.58
2019-01-25T06:13:30.602Z,33.02
2019-01-25T06:15:59.023Z,29.82
2019-01-25T06:18:27.485Z,33.00
2019-01-25T06:20:57.921Z,28.80
2019-01-25T06:23:26.634Z,31.80
2019-01-25T06:25:57.467Z,30.70
2019-01-25T06:28:28.815Z,27.30
2019-01-25T06:30:57.318Z,33.53
2019-01-25T06:33:25.894Z,32.50
2019-01-25T06:35:54.336Z,29.77
2019-01-25T06:38:22.814Z,29.25
2019-01-25T06:40:51.298Z,31.07
2019-01-25T06:43:19.738Z,30.52
2019-01-25T06:45:49.823Z,32.93
2019-01-25T06:48:19.117Z,33.20
2019-01-25T06:50:47.587Z,33.25
2019-01-25T06:53:16.026Z,33.60
2019-01-25T06:55:44.448Z,29.27
2019-01-25T06:58:29.717Z,33.92
2019-01-25T07:01:08.490Z,30.55
2019-01-25T07:03:36.944Z,29.63
2019-01-25T07:06:05.513Z,34.18
2019-01-25T07:08:33.959Z,31.87
2019-01-25T07:11:03.799Z,31.65
2019-01-25T07:13:35.552Z,31.52
2019-01-25T07:16:04.150Z,33.80
2019-01-25T07:18:32.599Z,33.35
2019-01-25T07:21:01.023Z,31.80
2019-01-25T07:23:29.479Z,31.42
2019-01-25T07:25:57.897Z,34.15
2019-01-25T07:28:29.316Z,28.77
2019-01-25T07:30:57.832Z,31.68
2019-01-25T07:33:26.365Z,32.53
2019-01-25T07:35:54.928Z,32.93
2019-01-25T07:38:23.570Z,31.25
2019-01-25T07:40:52.061Z,34.05
2019-01-25T07:43:20.463Z,32.10
2019-01-25T07:45:49.116Z,30.77
2019-01-25T07:48:17.634Z,34.27
2019-01-25T07:50:46.122Z,28.95
2019-01-25T07:53:14.569Z,33.85
2019-01-25T07:55:43.132Z,31.80
2019-01-25T07:58:11.890Z,32.75
2019-01-25T08:00:40.380Z,30.95
2019-01-25T08:03:08.839Z,33.58
2019-01-25T08:05:37.251Z,30.30
2019-01-25T08:08:05.721Z,35.85
2019-01-25T08:10:34.274Z,34.55
2019-01-25T08:13:02.860Z,33.02
2019-01-25T08:15:31.581Z,29.60
2019-01-25T08:18:00.375Z,34.50
2019-01-25T08:20:29.080Z,30.20
2019-01-25T08:22:57.723Z,30.88
2019-01-25T08:25:26.416Z,28.00
2019-01-25T08:27:54.837Z,34.70
2019-01-25T08:30:29.789Z,30.25
2019-01-25T08:32:58.608Z,30.80
2019-01-25T08:35:27.099Z,32.75
2019-01-25T08:37:55.641Z,32.48
2019-01-25T08:40:24.221Z,35.90
2019-01-25T08:42:53.032Z,31.45
2019-01-25T08:45:21.464Z,31.42
2019-01-25T08:47:49.914Z,34.38
2019-01-25T08:50:23.772Z,35.33
2019-01-25T08:52:52.365Z,32.67
2019-01-25T08:55:21.450Z,30.15
2019-01-25T08:57:50.505Z,32.67
2019-01-25T09:00:32.283Z,36.08
2019-01-25T09:03:00.688Z,37.10
2019-01-25T09:05:29.113Z,35.70
2019-01-25T09:07:57.568Z,36.70
2019-01-25T09:10:27.419Z,36.23
2019-01-25T09:12:55.877Z,33.78
2019-01-25T09:15:29.768Z,29.98
2019-01-25T09:17:58.205Z,31.00
2019-01-25T09:20:26.686Z,34.92
2019-01-25T09:22:55.138Z,32.10
2019-01-25T09:25:23.592Z,27.40
2019-01-25T09:27:52.134Z,31.25
2019-01-25T09:30:26.296Z,30.95
2019-01-25T09:32:54.811Z,30.68
2019-01-25T09:35:23.515Z,28.75
2019-01-25T09:37:53.957Z,29.27
2019-01-25T09:40:25.228Z,30.32
2019-01-25T09:42:53.652Z,25.92
2019-01-25T09:45:22.568Z,30.32
2019-01-25T09:47:51.263Z,29.75
2019-01-25T09:50:21.451Z,29.12
2019-01-25T09:52:49.904Z,31.75
2019-01-25T09:55:25.907Z,31.85
2019-01-25T09:58:03.163Z,28.38
2019-01-25T10:00:50.407Z,33.48
2019-01-25T10:03:18.918Z,32.20
2019-01-25T10:05:47.339Z,28.70
2019-01-25T10:08:15.794Z,28.45
2019-01-25T10:10:44.253Z,25.35
2019-01-25T10:13:12.672Z,31.07
2019-01-25T10:15:41.114Z,29.60
2019-01-25T10:18:09.644Z,22.77
2019-01-25T10:20:38.061Z,26.27
2019-01-25T10:23:06.478Z,23.85
2019-01-25T10:25:34.958Z,24.87
2019-01-25T10:28:03.422Z,23.30
2019-01-25T10:30:31.862Z,20.25
2019-01-25T10:33:00.552Z,26.02
2019-01-25T10:35:29.374Z,25.57
2019-01-25T10:37:57.826Z,24.70
2019-01-25T10:40:26.344Z,24.32
2019-01-25T10:42:54.795Z,24.10
2019-01-25T10:45:41.650Z,20.80
2019-01-25T10:48:13.454Z,21.37
2019-01-25T10:50:41.966Z,21.68
2019-01-25T10:53:10.402Z,23.00
2019-01-25T10:55:39.225Z,21.77
2019-01-25T10:58:08.698Z,22.00
2019-01-25T11:00:37.178Z,21.70
2019-01-25T11:03:05.862Z,16.00
2019-01-25T11:05:34.396Z,17.48
2019-01-25T11:08:02.867Z,20.60
2019-01-25T11:10:31.690Z,19.37
2019-01-25T11:13:01.078Z,25.10
2019-01-25T11:15:29.907Z,20.68
2019-01-25T11:18:02.293Z,20.37
2019-01-25T11:20:30.705Z,25.10
2019-01-25T11:22:59.174Z,21.55
2019-01-25T11:25:36.734Z,18.95
2019-01-25T11:28:05.472Z,13.53
2019-01-25T11:30:34.220Z,12.58
2019-01-25T11:33:07.012Z,14.43
2019-01-25T11:35:35.463Z,12.98
2019-01-25T11:38:04.870Z,17.12
2019-01-25T11:40:39.212Z,16.90
2019-01-25T11:43:08.816Z,17.52
2019-01-25T11:45:37.947Z,15.95
2019-01-25T11:48:09.802Z,16.17
2019-01-25T11:50:39.059Z,15.40
2019-01-25T11:53:07.583Z,14.05
2019-01-25T11:55:36.020Z,17.90
2019-01-25T11:58:05.588Z,16.57
2019-01-25T12:00:35.165Z,19.32
2019-01-25T12:03:07.767Z,17.85
2019-01-25T12:05:36.253Z,16.10
2019-01-25T12:08:05.987Z,17.05
2019-01-25T12:10:34.723Z,15.85
2019-01-25T12:13:03.745Z,17.05
2019-01-25T12:15:32.334Z,16.55
2019-01-25T12:18:01.069Z,19.23
2019-01-25T12:20:31.487Z,17.05
2019-01-25T12:23:00.344Z,17.87
2019-01-25T12:25:28.880Z,19.57
2019-01-25T12:27:57.771Z,17.73
2019-01-25T12:30:31.082Z,18.70
2019-01-25T12:32:59.826Z,16.52
2019-01-25T12:35:30.898Z,18.20
2019-01-25T12:37:59.440Z,15.65
2019-01-25T12:40:27.855Z,19.37
2019-01-25T12:42:56.397Z,18.82
2019-01-25T12:45:27.534Z,19.87
2019-01-25T12:47:56.155Z,14.85
2019-01-25T12:50:36.401Z,19.65
2019-01-25T12:53:08.275Z,16.57
2019-01-25T12:55:36.845Z,14.93
2019-01-25T12:58:06.305Z,16.97
2019-01-25T13:00:35.032Z,17.60
2019-01-25T13:03:04.654Z,16.02
2019-01-25T13:05:33.094Z,15.90
2019-01-25T13:08:01.534Z,17.02
2019-01-25T13:10:30.028Z,19.42
2019-01-25T13:12:58.578Z,16.50
2019-01-25T13:15:27.131Z,21.02
2019-01-25T13:17:55.556Z,16.57
2019-01-25T13:20:31.500Z,17.95
2019-01-25T13:23:00.104Z,17.32
2019-01-25T13:25:28.656Z,18.80
2019-01-25T13:27:57.142Z,16.23
2019-01-25T13:30:30.766Z,18.25
2019-01-25T13:32:59.717Z,17.87
2019-01-25T13:35:28.288Z,19.60
2019-01-25T13:37:56.802Z,15.28
2019-01-25T13:40:29.851Z,16.90
2019-01-25T13:42:58.345Z,15.32
2019-01-25T13:45:26.823Z,17.37
2019-01-25T13:47:55.587Z,16.57
2019-01-25T13:50:27.140Z,16.30
2019-01-25T13:52:55.598Z,13.68
2019-01-25T13:55:24.349Z,14.90
2019-01-25T13:57:53.228Z,18.25
2019-01-25T14:00:30.491Z,14.23
2019-01-25T14:02:59.507Z,16.52
2019-01-25T14:05:28.304Z,14.85
2019-01-25T14:07:56.962Z,16.00
2019-01-25T14:10:36.058Z,10.95
2019-01-25T14:13:05.530Z,15.30
2019-01-25T14:15:34.507Z,15.63
2019-01-25T14:18:03.022Z,13.83
2019-01-25T14:20:32.778Z,15.30
2019-01-25T14:23:01.574Z,16.00
2019-01-25T14:25:30.562Z,15.53
2019-01-25T14:27:59.011Z,14.15
2019-01-25T14:30:30.543Z,13.30
2019-01-25T14:32:58.980Z,14.83
2019-01-25T14:35:31.287Z,15.78
2019-01-25T14:37:59.779Z,14.70
2019-01-25T14:40:28.315Z,17.32
2019-01-25T14:42:56.743Z,15.43
2019-01-25T14:45:25.708Z,16.73
2019-01-25T14:47:54.234Z,16.60
2019-01-25T14:50:30.947Z,17.32
2019-01-25T14:52:59.835Z,17.60
2019-01-25T14:55:28.332Z,16.17
2019-01-25T14:57:57.454Z,15.88
2019-01-25T15:00:25.907Z,17.10
2019-01-25T15:02:54.348Z,20.43
2019-01-25T15:05:22.946Z,18.12
2019-01-25T15:07:51.450Z,17.25
2019-01-25T15:10:22.448Z,18.35
2019-01-25T15:12:52.701Z,20.95
2019-01-25T15:15:21.601Z,18.55
2019-01-25T15:17:50.314Z,19.77
2019-01-25T15:20:21.473Z,19.27
2019-01-25T15:22:49.911Z,27.40
2019-01-25T15:25:18.711Z,18.02
2019-01-25T15:27:47.243Z,18.02
2019-01-25T15:30:18.569Z,20.72
2019-01-25T15:32:47.126Z,17.30
2019-01-25T15:35:17.999Z,22.10
2019-01-25T15:37:46.426Z,19.20
2019-01-25T15:40:17.638Z,20.32
2019-01-25T15:42:46.600Z,21.75
2019-01-25T15:45:20.563Z,17.45
2019-01-25T15:47:49.077Z,19.10
2019-01-25T15:50:23.407Z,18.73
2019-01-25T15:52:51.843Z,19.48
2019-01-25T15:55:20.995Z,17.52
2019-01-25T15:57:49.526Z,21.05
2019-01-25T16:00:23.898Z,21.12
2019-01-25T16:02:52.810Z,23.65
2019-01-25T16:05:23.039Z,22.62
2019-01-25T16:07:51.537Z,20.30
2019-01-25T16:10:21.687Z,21.17
2019-01-25T16:12:50.986Z,18.42
2019-01-25T16:15:25.234Z,20.97
2019-01-25T16:17:54.502Z,18.67
2019-01-25T16:20:22.954Z,20.05
2019-01-25T16:22:56.898Z,20.37
2019-01-25T16:25:28.475Z,18.73
2019-01-25T16:27:56.960Z,20.48
2019-01-25T16:30:33.647Z,20.25
2019-01-25T16:33:02.085Z,21.90
2019-01-25T16:35:30.916Z,20.17
2019-01-25T16:37:59.374Z,21.73
2019-01-25T16:40:32.199Z,21.60
2019-01-25T16:43:00.630Z,21.10
2019-01-25T16:45:37.929Z,21.85
2019-01-25T16:48:06.795Z,21.42
2019-01-25T16:50:35.689Z,22.95
2019-01-25T16:53:06.441Z,22.30
2019-01-25T16:55:35.146Z,21.15
2019-01-25T16:58:03.563Z,22.13
2019-01-25T17:00:34.931Z,21.50
2019-01-25T17:03:03.841Z,21.95
2019-01-25T17:05:32.851Z,20.50
2019-01-25T17:08:05.817Z,19.40
2019-01-25T17:10:34.710Z,23.42
2019-01-25T17:13:03.808Z,22.07
2019-01-25T17:15:32.235Z,21.33
2019-01-25T17:18:00.696Z,19.77
2019-01-25T17:20:30.254Z,23.25
2019-01-25T17:22:58.690Z,21.50
2019-01-25T17:25:27.182Z,20.30
2019-01-25T17:27:55.992Z,22.95
2019-01-25T17:30:32.741Z,21.60
2019-01-25T17:33:01.827Z,20.85
2019-01-25T17:35:31.313Z,20.70
2019-01-25T17:38:00.001Z,21.62
2019-01-25T17:40:37.118Z,21.42
2019-01-25T17:43:05.799Z,21.87
2019-01-25T17:45:34.256Z,22.45
2019-01-25T17:48:02.687Z,24.37
2019-01-25T17:50:31.210Z,22.75
2019-01-25T17:52:59.635Z,21.62
2019-01-25T17:55:28.063Z,21.97
2019-01-25T17:57:56.503Z,21.15
2019-01-25T18:00:31.975Z,25.10
2019-01-25T18:03:00.428Z,22.48
2019-01-25T18:05:28.912Z,20.20
2019-01-25T18:07:57.356Z,24.02
2019-01-25T18:10:26.258Z,21.70
2019-01-25T18:12:54.691Z,23.25
2019-01-25T18:15:23.480Z,23.38
2019-01-25T18:17:51.905Z,20.12
2019-01-25T18:20:24.279Z,20.52
2019-01-25T18:22:53.235Z,24.32
2019-01-25T18:25:44.383Z,22.05
2019-01-25T18:28:21.604Z,23.77
2019-01-25T18:30:53.347Z,23.90
2019-01-25T18:33:21.770Z,20.85
2019-01-25T18:35:50.235Z,23.55
2019-01-25T18:38:19.004Z,22.07
2019-01-25T18:40:51.438Z,23.05
2019-01-25T18:43:19.851Z,21.52
2019-01-25T18:45:48.495Z,23.35
2019-01-25T18:48:16.919Z,22.45
2019-01-25T18:50:45.344Z,20.68
2019-01-25T18:53:13.779Z,23.67
2019-01-25T18:55:42.194Z,24.32
2019-01-25T18:58:10.648Z,22.10
2019-01-25T19:00:39.440Z,21.02
2019-01-25T19:03:07.943Z,21.17
2019-01-25T19:05:36.395Z,19.35
2019-01-25T19:08:05.266Z,23.45
2019-01-25T19:10:33.758Z,20.97
2019-01-25T19:13:02.202Z,23.57
2019-01-25T19:15:31.752Z,21.37
2019-01-25T19:18:00.210Z,22.95
2019-01-25T19:20:29.063Z,22.80
2019-01-25T19:22:57.506Z,19.37
2019-01-25T19:25:25.939Z,23.00
2019-01-25T19:27:54.366Z,22.17
2019-01-25T19:30:28.479Z,23.75
2019-01-25T19:32:57.216Z,20.35
2019-01-25T19:35:25.703Z,20.57
2019-01-25T19:37:54.362Z,18.35
2019-01-25T19:40:26.074Z,19.00
2019-01-25T19:42:54.859Z,17.77
2019-01-25T19:45:23.731Z,18.90
2019-01-25T19:47:52.470Z,17.23
2019-01-25T19:50:21.618Z,18.95
2019-01-25T19:52:50.700Z,21.60
2019-01-25T19:55:22.040Z,18.60
2019-01-25T19:57:50.750Z,16.50
2019-01-25T20:00:34.280Z,17.50
2019-01-25T20:03:02.701Z,20.23
2019-01-25T20:05:32.635Z,20.02
2019-01-25T20:08:01.491Z,17.92
2019-01-25T20:10:30.180Z,18.52
2019-01-25T20:12:58.675Z,18.15
2019-01-25T20:15:28.180Z,18.50
2019-01-25T20:17:56.930Z,17.02
2019-01-25T20:20:28.604Z,19.45
2019-01-25T20:22:57.592Z,18.70
2019-01-25T20:25:26.015Z,17.15
2019-01-25T20:27:54.493Z,16.75
2019-01-25T20:30:31.413Z,17.32
2019-01-25T20:33:01.087Z,19.55
2019-01-25T20:35:31.843Z,17.25
2019-01-25T20:38:00.314Z,19.20
2019-01-25T20:40:28.808Z,17.77
2019-01-25T20:42:57.254Z,16.00
2019-01-25T20:45:28.670Z,15.55
2019-01-25T20:47:57.135Z,15.68
2019-01-25T20:50:27.615Z,17.02
2019-01-25T20:52:56.251Z,18.62
2019-01-25T20:55:25.734Z,18.05
2019-01-25T20:57:55.398Z,16.20
2019-01-25T21:00:29.704Z,16.37
2019-01-25T21:02:58.199Z,17.00
2019-01-25T21:05:26.623Z,15.63
2019-01-25T21:07:55.410Z,15.58
2019-01-25T21:10:25.614Z,17.32
2019-01-25T21:12:54.711Z,16.80
2019-01-25T21:15:25.483Z,14.55
2019-01-25T21:17:54.875Z,13.95
2019-01-25T21:20:29.420Z,16.60
2019-01-25T21:22:57.872Z,16.37
2019-01-25T21:25:26.555Z,15.38
2019-01-25T21:27:55.027Z,15.45
2019-01-25T21:30:26.355Z,16.90
2019-01-25T21:32:55.055Z,15.80
2019-01-25T21:35:23.479Z,16.05
2019-01-25T21:37:51.933Z,15.70
2019-01-25T21:40:23.254Z,16.82
2019-01-25T21:42:55.715Z,15.78
2019-01-25T21:45:26.590Z,15.72
2019-01-25T21:47:55.006Z,16.30
2019-01-25T21:50:29.647Z,15.75
2019-01-25T21:52:58.082Z,15.50
2019-01-25T21:55:26.534Z,16.37
2019-01-25T21:57:54.962Z,17.32
2019-01-25T22:00:26.165Z,14.87
2019-01-25T22:02:54.664Z,15.18
2019-01-25T22:05:23.121Z,13.65
2019-01-25T22:07:51.550Z,16.52
2019-01-25T22:10:23.156Z,17.17
2019-01-25T22:12:58.850Z,14.47
2019-01-25T22:15:27.288Z,14.55
2019-01-25T22:17:55.747Z,14.95
2019-01-25T22:20:29.270Z,14.78
2019-01-25T22:22:58.207Z,16.50
2019-01-25T22:25:27.054Z,15.20
2019-01-25T22:27:56.442Z,14.73
2019-01-25T22:30:27.525Z,15.60
2019-01-25T22:32:56.587Z,13.35
2019-01-25T22:35:25.115Z,15.03
2019-01-25T22:37:53.979Z,14.20
2019-01-25T22:40:24.857Z,14.73
2019-01-25T22:42:53.584Z,13.85
2019-01-25T22:45:27.767Z,13.05
2019-01-25T22:47:57.505Z,15.50
2019-01-25T22:50:28.308Z,13.08
2019-01-25T22:52:56.971Z,12.82
2019-01-25T22:55:26.282Z,15.45
2019-01-25T22:57:54.696Z,12.58
2019-01-25T23:00:54.990Z,14.83
2019-01-25T23:03:42.909Z,10.98
2019-01-25T23:06:32.666Z,12.53
2019-01-25T23:09:05.422Z,11.88
2019-01-25T23:11:33.880Z,12.30
2019-01-25T23:14:06.498Z,12.63
2019-01-25T23:16:34.962Z,12.03
2019-01-25T23:19:03.550Z,11.93
2019-01-25T23:21:31.975Z,11.53
2019-01-25T23:24:00.398Z,11.50
2019-01-25T23:26:28.858Z,12.73
2019-01-25T23:28:57.263Z,8.98
2019-01-25T23:31:25.898Z,11.97
2019-01-25T23:33:54.350Z,10.55
2019-01-25T23:36:22.779Z,10.30
2019-01-25T23:38:51.195Z,10.05
2019-01-25T23:41:19.654Z,11.48
2019-01-25T23:43:48.066Z,7.12
2019-01-25T23:46:16.487Z,9.73
2019-01-25T23:48:45.099Z,8.58
2019-01-25T23:51:13.562Z,10.05
2019-01-25T23:53:41.965Z,9.20
2019-01-25T23:56:10.418Z,9.05
2019-01-25T23:58:38.827Z,8.38
